HRQ weather

Reforma 115 Helipad
Miguel Hidalgo, Distrito Federal, Mexico

Public forecast

Using degrees Celsius for public forecast. Weather courtesy of forecast.io.

METAR (pilot weather report)

Closest report is Licenciado Benito Juarez International Airport, 7.5 nm (13.9 km) E. Retrieved 2019/06/27 04:45 UTC (34 minutes ago):

MMMX 270445Z 32005KT 8SM SCT020 BKN080 18/11 A3040 NOSIG RMK 8/530 HZY CI

TAF (pilot weather forecast)

Forecast is more than 12 hours old.

Closest forecast is Licenciado Benito Juarez International Airport, 7.5 nm (13.9 km) E. Retrieved 2019/06/26 00:27 UTC (1 day ago):

TAF MMMX 262323Z 2700/2806 12010KT P6SM VC RA BKN020CB BKN080 OVC200 TX24/2721Z TN16/2712Z TEMPO 2700/2704 5SM TSRA FM270600 00000KT P6SM SCT020 BKN080 FM271600 07005KT P6SM BKN020 BKN080 PROB40 2721/2801 6SM RA BKN020CB